sensor_id;sensor_type;location;lat;lon;timestamp;P1;durP1;ratioP1;P2;durP2;ratioP2
27187;SDS011;14708;50.872;5.306;2024-02-23T00:02:18;0.85;;;0.40;;
27187;SDS011;14708;50.872;5.306;2024-02-23T00:04:44;1.02;;;0.50;;
27187;SDS011;14708;50.872;5.306;2024-02-23T00:07:10;0.30;;;0.30;;
27187;SDS011;14708;50.872;5.306;2024-02-23T00:09:36;0.70;;;0.40;;
27187;SDS011;14708;50.872;5.306;2024-02-23T00:12:03;1.58;;;0.38;;
27187;SDS011;14708;50.872;5.306;2024-02-23T00:14:29;1.08;;;0.95;;
27187;SDS011;14708;50.872;5.306;2024-02-23T00:16:56;0.68;;;0.40;;
27187;SDS011;14708;50.872;5.306;2024-02-23T00:19:22;0.73;;;0.20;;
27187;SDS011;14708;50.872;5.306;2024-02-23T00:21:50;2.55;;;0.40;;
27187;SDS011;14708;50.872;5.306;2024-02-23T00:24:17;0.50;;;0.30;;
27187;SDS011;14708;50.872;5.306;2024-02-23T00:26:45;1.05;;;0.40;;
27187;SDS011;14708;50.872;5.306;2024-02-23T00:29:12;0.65;;;0.50;;
27187;SDS011;14708;50.872;5.306;2024-02-23T00:31:38;0.40;;;0.38;;
27187;SDS011;14708;50.872;5.306;2024-02-23T00:34:06;0.63;;;0.30;;
27187;SDS011;14708;50.872;5.306;2024-02-23T00:36:35;0.80;;;0.40;;
27187;SDS011;14708;50.872;5.306;2024-02-23T00:39:03;0.35;;;0.32;;
27187;SDS011;14708;50.872;5.306;2024-02-23T00:41:29;2.20;;;0.40;;
27187;SDS011;14708;50.872;5.306;2024-02-23T00:43:54;1.00;;;0.43;;
27187;SDS011;14708;50.872;5.306;2024-02-23T00:46:20;0.47;;;0.45;;
27187;SDS011;14708;50.872;5.306;2024-02-23T00:48:46;1.23;;;0.57;;
27187;SDS011;14708;50.872;5.306;2024-02-23T00:51:13;0.77;;;0.70;;
27187;SDS011;14708;50.872;5.306;2024-02-23T00:53:40;0.75;;;0.30;;
27187;SDS011;14708;50.872;5.306;2024-02-23T00:56:05;0.35;;;0.30;;
27187;SDS011;14708;50.872;5.306;2024-02-23T00:58:32;1.48;;;0.50;;
27187;SDS011;14708;50.872;5.306;2024-02-23T01:00:58;1.10;;;0.50;;
27187;SDS011;14708;50.872;5.306;2024-02-23T01:03:26;0.45;;;0.45;;
27187;SDS011;14708;50.872;5.306;2024-02-23T01:05:52;1.42;;;0.68;;
27187;SDS011;14708;50.872;5.306;2024-02-23T01:08:18;1.15;;;0.40;;
27187;SDS011;14708;50.872;5.306;2024-02-23T01:10:44;0.98;;;0.50;;
27187;SDS011;14708;50.872;5.306;2024-02-23T01:13:11;0.57;;;0.50;;
27187;SDS011;14708;50.872;5.306;2024-02-23T01:15:37;0.68;;;0.40;;
27187;SDS011;14708;50.872;5.306;2024-02-23T01:18:04;0.80;;;0.30;;
27187;SDS011;14708;50.872;5.306;2024-02-23T01:20:32;1.08;;;0.30;;
27187;SDS011;14708;50.872;5.306;2024-02-23T01:22:58;0.52;;;0.32;;
27187;SDS011;14708;50.872;5.306;2024-02-23T01:25:24;1.02;;;0.60;;
27187;SDS011;14708;50.872;5.306;2024-02-23T01:27:49;3.13;;;0.57;;
27187;SDS011;14708;50.872;5.306;2024-02-23T01:30:15;0.28;;;0.20;;
27187;SDS011;14708;50.872;5.306;2024-02-23T01:32:41;0.30;;;0.30;;
27187;SDS011;14708;50.872;5.306;2024-02-23T01:35:06;1.02;;;0.40;;
27187;SDS011;14708;50.872;5.306;2024-02-23T01:37:33;1.00;;;0.55;;
27187;SDS011;14708;50.872;5.306;2024-02-23T01:39:59;0.38;;;0.30;;
27187;SDS011;14708;50.872;5.306;2024-02-23T01:42:25;0.30;;;0.30;;
27187;SDS011;14708;50.872;5.306;2024-02-23T01:44:51;0.25;;;0.25;;
27187;SDS011;14708;50.872;5.306;2024-02-23T01:47:17;0.65;;;0.50;;
27187;SDS011;14708;50.872;5.306;2024-02-23T01:49:44;1.35;;;0.50;;
27187;SDS011;14708;50.872;5.306;2024-02-23T01:52:11;0.20;;;0.20;;
27187;SDS011;14708;50.872;5.306;2024-02-23T01:54:39;2.45;;;0.68;;
27187;SDS011;14708;50.872;5.306;2024-02-23T01:57:05;0.90;;;0.40;;
27187;SDS011;14708;50.872;5.306;2024-02-23T01:59:34;0.43;;;0.30;;
27187;SDS011;14708;50.872;5.306;2024-02-23T02:02:04;1.23;;;0.45;;
27187;SDS011;14708;50.872;5.306;2024-02-23T02:04:30;0.50;;;0.30;;
27187;SDS011;14708;50.872;5.306;2024-02-23T02:06:56;0.75;;;0.38;;
27187;SDS011;14708;50.872;5.306;2024-02-23T02:09:23;0.43;;;0.30;;
27187;SDS011;14708;50.872;5.306;2024-02-23T02:11:49;1.00;;;0.40;;
27187;SDS011;14708;50.872;5.306;2024-02-23T02:14:16;0.60;;;0.30;;
27187;SDS011;14708;50.872;5.306;2024-02-23T02:16:42;0.98;;;0.40;;
27187;SDS011;14708;50.872;5.306;2024-02-23T02:19:10;2.00;;;0.60;;
27187;SDS011;14708;50.872;5.306;2024-02-23T02:21:36;0.75;;;0.52;;
27187;SDS011;14708;50.872;5.306;2024-02-23T02:24:02;0.40;;;0.30;;
27187;SDS011;14708;50.872;5.306;2024-02-23T02:26:29;1.65;;;0.50;;
27187;SDS011;14708;50.872;5.306;2024-02-23T02:28:55;1.05;;;0.70;;
27187;SDS011;14708;50.872;5.306;2024-02-23T02:31:22;1.27;;;0.52;;
27187;SDS011;14708;50.872;5.306;2024-02-23T02:33:48;0.43;;;0.43;;
27187;SDS011;14708;50.872;5.306;2024-02-23T02:36:14;1.75;;;0.63;;
27187;SDS011;14708;50.872;5.306;2024-02-23T02:38:40;0.68;;;0.30;;
27187;SDS011;14708;50.872;5.306;2024-02-23T02:41:05;0.50;;;0.30;;
27187;SDS011;14708;50.872;5.306;2024-02-23T02:43:31;0.60;;;0.52;;
27187;SDS011;14708;50.872;5.306;2024-02-23T02:45:58;0.63;;;0.30;;
27187;SDS011;14708;50.872;5.306;2024-02-23T02:48:24;0.68;;;0.50;;
27187;SDS011;14708;50.872;5.306;2024-02-23T02:50:50;1.45;;;0.55;;
27187;SDS011;14708;50.872;5.306;2024-02-23T02:53:16;0.28;;;0.25;;
27187;SDS011;14708;50.872;5.306;2024-02-23T02:55:42;0.82;;;0.50;;
27187;SDS011;14708;50.872;5.306;2024-02-23T02:58:08;1.58;;;0.40;;
27187;SDS011;14708;50.872;5.306;2024-02-23T03:00:36;0.85;;;0.40;;
27187;SDS011;14708;50.872;5.306;2024-02-23T03:03:03;0.38;;;0.30;;
27187;SDS011;14708;50.872;5.306;2024-02-23T03:05:30;1.05;;;0.77;;
27187;SDS011;14708;50.872;5.306;2024-02-23T03:07:57;0.45;;;0.30;;
27187;SDS011;14708;50.872;5.306;2024-02-23T03:10:24;0.93;;;0.40;;
27187;SDS011;14708;50.872;5.306;2024-02-23T03:12:50;0.30;;;0.30;;
27187;SDS011;14708;50.872;5.306;2024-02-23T03:15:16;0.20;;;0.20;;
27187;SDS011;14708;50.872;5.306;2024-02-23T03:17:43;0.52;;;0.43;;
27187;SDS011;14708;50.872;5.306;2024-02-23T03:20:10;1.98;;;0.63;;
27187;SDS011;14708;50.872;5.306;2024-02-23T03:22:39;0.30;;;0.30;;
27187;SDS011;14708;50.872;5.306;2024-02-23T03:27:35;0.40;;;0.38;;
27187;SDS011;14708;50.872;5.306;2024-02-23T03:30:02;0.98;;;0.30;;
27187;SDS011;14708;50.872;5.306;2024-02-23T03:32:28;0.73;;;0.40;;
27187;SDS011;14708;50.872;5.306;2024-02-23T03:34:56;0.90;;;0.70;;
27187;SDS011;14708;50.872;5.306;2024-02-23T03:37:24;0.90;;;0.40;;
27187;SDS011;14708;50.872;5.306;2024-02-23T03:39:49;2.63;;;0.65;;
27187;SDS011;14708;50.872;5.306;2024-02-23T03:42:15;0.98;;;0.70;;
27187;SDS011;14708;50.872;5.306;2024-02-23T03:44:41;1.50;;;0.68;;
27187;SDS011;14708;50.872;5.306;2024-02-23T03:47:07;1.23;;;0.50;;
27187;SDS011;14708;50.872;5.306;2024-02-23T03:49:34;2.17;;;0.73;;
27187;SDS011;14708;50.872;5.306;2024-02-23T03:52:01;1.58;;;0.60;;
27187;SDS011;14708;50.872;5.306;2024-02-23T03:54:28;1.70;;;0.80;;
27187;SDS011;14708;50.872;5.306;2024-02-23T03:56:57;0.85;;;0.40;;
27187;SDS011;14708;50.872;5.306;2024-02-23T03:59:22;2.83;;;0.80;;
27187;SDS011;14708;50.872;5.306;2024-02-23T04:01:48;1.85;;;0.50;;
27187;SDS011;14708;50.872;5.306;2024-02-23T04:04:14;2.33;;;0.70;;
27187;SDS011;14708;50.872;5.306;2024-02-23T04:06:40;0.82;;;0.40;;
27187;SDS011;14708;50.872;5.306;2024-02-23T04:09:07;0.95;;;0.43;;
27187;SDS011;14708;50.872;5.306;2024-02-23T04:11:33;2.33;;;0.50;;
27187;SDS011;14708;50.872;5.306;2024-02-23T04:13:59;1.73;;;0.52;;
27187;SDS011;14708;50.872;5.306;2024-02-23T04:16:25;1.05;;;0.40;;
27187;SDS011;14708;50.872;5.306;2024-02-23T04:18:52;0.43;;;0.43;;
27187;SDS011;14708;50.872;5.306;2024-02-23T04:21:19;4.05;;;0.55;;
27187;SDS011;14708;50.872;5.306;2024-02-23T04:23:45;2.92;;;0.57;;
27187;SDS011;14708;50.872;5.306;2024-02-23T04:26:11;1.13;;;0.60;;
27187;SDS011;14708;50.872;5.306;2024-02-23T04:28:40;0.73;;;0.32;;
27187;SDS011;14708;50.872;5.306;2024-02-23T04:31:07;1.25;;;0.55;;
27187;SDS011;14708;50.872;5.306;2024-02-23T04:33:35;2.53;;;0.70;;
27187;SDS011;14708;50.872;5.306;2024-02-23T04:36:02;1.05;;;0.50;;
27187;SDS011;14708;50.872;5.306;2024-02-23T04:38:28;1.15;;;0.40;;
27187;SDS011;14708;50.872;5.306;2024-02-23T04:40:56;1.55;;;0.80;;
27187;SDS011;14708;50.872;5.306;2024-02-23T04:43:23;0.35;;;0.35;;
27187;SDS011;14708;50.872;5.306;2024-02-23T04:45:49;1.02;;;0.43;;
27187;SDS011;14708;50.872;5.306;2024-02-23T04:48:15;1.13;;;0.50;;
27187;SDS011;14708;50.872;5.306;2024-02-23T04:50:43;2.50;;;0.88;;
27187;SDS011;14708;50.872;5.306;2024-02-23T04:53:09;2.45;;;0.77;;
27187;SDS011;14708;50.872;5.306;2024-02-23T04:55:36;2.63;;;0.98;;
27187;SDS011;14708;50.872;5.306;2024-02-23T04:58:01;0.88;;;0.40;;
27187;SDS011;14708;50.872;5.306;2024-02-23T05:00:28;1.42;;;0.68;;
27187;SDS011;14708;50.872;5.306;2024-02-23T05:02:58;1.45;;;0.60;;
27187;SDS011;14708;50.872;5.306;2024-02-23T05:05:25;3.72;;;1.30;;
27187;SDS011;14708;50.872;5.306;2024-02-23T05:07:50;1.27;;;0.35;;
27187;SDS011;14708;50.872;5.306;2024-02-23T05:10:16;0.70;;;0.40;;
27187;SDS011;14708;50.872;5.306;2024-02-23T05:12:42;0.63;;;0.50;;
27187;SDS011;14708;50.872;5.306;2024-02-23T05:15:08;1.80;;;0.47;;
27187;SDS011;14708;50.872;5.306;2024-02-23T05:17:34;1.80;;;0.70;;
27187;SDS011;14708;50.872;5.306;2024-02-23T05:20:00;1.67;;;0.63;;
27187;SDS011;14708;50.872;5.306;2024-02-23T05:22:31;1.02;;;0.50;;
27187;SDS011;14708;50.872;5.306;2024-02-23T05:24:58;0.90;;;0.38;;
27187;SDS011;14708;50.872;5.306;2024-02-23T05:27:24;1.05;;;0.45;;
27187;SDS011;14708;50.872;5.306;2024-02-23T05:29:50;0.70;;;0.40;;
27187;SDS011;14708;50.872;5.306;2024-02-23T05:32:16;1.70;;;0.60;;
27187;SDS011;14708;50.872;5.306;2024-02-23T05:34:42;1.25;;;0.47;;
27187;SDS011;14708;50.872;5.306;2024-02-23T05:37:09;1.15;;;0.70;;
27187;SDS011;14708;50.872;5.306;2024-02-23T05:39:35;2.47;;;0.80;;
27187;SDS011;14708;50.872;5.306;2024-02-23T05:42:02;1.08;;;0.40;;
27187;SDS011;14708;50.872;5.306;2024-02-23T05:44:29;1.73;;;0.80;;
27187;SDS011;14708;50.872;5.306;2024-02-23T05:46:54;2.10;;;0.70;;
27187;SDS011;14708;50.872;5.306;2024-02-23T05:49:21;1.98;;;0.50;;
27187;SDS011;14708;50.872;5.306;2024-02-23T05:51:47;0.85;;;0.50;;
27187;SDS011;14708;50.872;5.306;2024-02-23T05:54:16;1.13;;;0.50;;
27187;SDS011;14708;50.872;5.306;2024-02-23T05:56:41;2.40;;;0.60;;
27187;SDS011;14708;50.872;5.306;2024-02-23T05:59:09;1.00;;;0.68;;
27187;SDS011;14708;50.872;5.306;2024-02-23T06:01:34;1.25;;;0.55;;
27187;SDS011;14708;50.872;5.306;2024-02-23T06:04:00;1.60;;;0.47;;
27187;SDS011;14708;50.872;5.306;2024-02-23T06:06:26;0.90;;;0.77;;
27187;SDS011;14708;50.872;5.306;2024-02-23T06:08:52;0.57;;;0.50;;
27187;SDS011;14708;50.872;5.306;2024-02-23T06:11:20;1.70;;;0.57;;
27187;SDS011;14708;50.872;5.306;2024-02-23T06:13:46;2.00;;;0.60;;
27187;SDS011;14708;50.872;5.306;2024-02-23T06:16:13;1.92;;;1.30;;
27187;SDS011;14708;50.872;5.306;2024-02-23T06:18:38;10.00;;;6.95;;
27187;SDS011;14708;50.872;5.306;2024-02-23T06:23:39;5.85;;;3.38;;
27187;SDS011;14708;50.872;5.306;2024-02-23T06:26:05;6.10;;;3.83;;
27187;SDS011;14708;50.872;5.306;2024-02-23T06:28:31;7.20;;;4.43;;
27187;SDS011;14708;50.872;5.306;2024-02-23T06:30:59;7.85;;;4.80;;
27187;SDS011;14708;50.872;5.306;2024-02-23T06:33:25;5.82;;;4.03;;
27187;SDS011;14708;50.872;5.306;2024-02-23T06:35:51;10.75;;;2.88;;
27187;SDS011;14708;50.872;5.306;2024-02-23T06:38:17;8.68;;;4.22;;
27187;SDS011;14708;50.872;5.306;2024-02-23T06:40:43;9.35;;;3.17;;
27187;SDS011;14708;50.872;5.306;2024-02-23T06:43:09;6.32;;;3.25;;
27187;SDS011;14708;50.872;5.306;2024-02-23T06:45:34;6.13;;;3.13;;
27187;SDS011;14708;50.872;5.306;2024-02-23T06:48:00;24.83;;;5.35;;
27187;SDS011;14708;50.872;5.306;2024-02-23T06:50:26;17.30;;;4.65;;
27187;SDS011;14708;50.872;5.306;2024-02-23T06:52:51;18.10;;;5.07;;
27187;SDS011;14708;50.872;5.306;2024-02-23T06:55:17;19.25;;;6.50;;
27187;SDS011;14708;50.872;5.306;2024-02-23T06:57:43;15.13;;;5.07;;
27187;SDS011;14708;50.872;5.306;2024-02-23T07:00:10;22.52;;;5.45;;
27187;SDS011;14708;50.872;5.306;2024-02-23T07:02:36;12.45;;;4.00;;
27187;SDS011;14708;50.872;5.306;2024-02-23T07:05:03;15.05;;;4.50;;
27187;SDS011;14708;50.872;5.306;2024-02-23T07:07:32;13.70;;;4.10;;
27187;SDS011;14708;50.872;5.306;2024-02-23T07:09:58;14.95;;;3.67;;
27187;SDS011;14708;50.872;5.306;2024-02-23T07:12:24;17.33;;;5.20;;
27187;SDS011;14708;50.872;5.306;2024-02-23T07:14:52;12.98;;;2.65;;
27187;SDS011;14708;50.872;5.306;2024-02-23T07:17:18;16.58;;;3.00;;
27187;SDS011;14708;50.872;5.306;2024-02-23T07:19:44;4.90;;;2.70;;
27187;SDS011;14708;50.872;5.306;2024-02-23T07:22:12;14.05;;;3.28;;
27187;SDS011;14708;50.872;5.306;2024-02-23T07:24:41;7.90;;;3.00;;
27187;SDS011;14708;50.872;5.306;2024-02-23T07:27:07;7.03;;;2.10;;
27187;SDS011;14708;50.872;5.306;2024-02-23T07:29:33;12.20;;;2.22;;
27187;SDS011;14708;50.872;5.306;2024-02-23T07:31:59;12.23;;;2.58;;
27187;SDS011;14708;50.872;5.306;2024-02-23T07:34:25;10.23;;;1.80;;
27187;SDS011;14708;50.872;5.306;2024-02-23T07:36:53;9.90;;;1.75;;
27187;SDS011;14708;50.872;5.306;2024-02-23T07:39:20;8.40;;;2.35;;
27187;SDS011;14708;50.872;5.306;2024-02-23T07:41:47;13.57;;;2.13;;
27187;SDS011;14708;50.872;5.306;2024-02-23T07:44:12;10.82;;;1.65;;
27187;SDS011;14708;50.872;5.306;2024-02-23T07:46:38;5.50;;;1.65;;
27187;SDS011;14708;50.872;5.306;2024-02-23T07:49:04;8.52;;;2.22;;
27187;SDS011;14708;50.872;5.306;2024-02-23T07:51:31;8.20;;;2.28;;
27187;SDS011;14708;50.872;5.306;2024-02-23T07:53:57;12.73;;;1.65;;
27187;SDS011;14708;50.872;5.306;2024-02-23T07:56:23;7.53;;;1.70;;
27187;SDS011;14708;50.872;5.306;2024-02-23T07:58:49;7.00;;;1.92;;
27187;SDS011;14708;50.872;5.306;2024-02-23T08:01:16;9.98;;;2.03;;
27187;SDS011;14708;50.872;5.306;2024-02-23T08:03:42;6.72;;;1.27;;
27187;SDS011;14708;50.872;5.306;2024-02-23T08:06:09;8.25;;;1.50;;
27187;SDS011;14708;50.872;5.306;2024-02-23T08:08:35;8.20;;;1.83;;
27187;SDS011;14708;50.872;5.306;2024-02-23T08:11:01;6.18;;;1.30;;
27187;SDS011;14708;50.872;5.306;2024-02-23T08:13:28;6.03;;;1.77;;
27187;SDS011;14708;50.872;5.306;2024-02-23T08:15:55;5.32;;;1.52;;
27187;SDS011;14708;50.872;5.306;2024-02-23T08:18:24;9.27;;;1.70;;
27187;SDS011;14708;50.872;5.306;2024-02-23T08:20:51;8.80;;;2.38;;
27187;SDS011;14708;50.872;5.306;2024-02-23T08:23:19;5.97;;;1.70;;
27187;SDS011;14708;50.872;5.306;2024-02-23T08:25:45;5.53;;;1.63;;
27187;SDS011;14708;50.872;5.306;2024-02-23T08:28:12;5.95;;;1.58;;
27187;SDS011;14708;50.872;5.306;2024-02-23T08:30:37;8.27;;;1.88;;
27187;SDS011;14708;50.872;5.306;2024-02-23T08:33:03;5.50;;;1.55;;
27187;SDS011;14708;50.872;5.306;2024-02-23T08:35:28;8.35;;;2.17;;
27187;SDS011;14708;50.872;5.306;2024-02-23T08:37:54;11.65;;;2.45;;
27187;SDS011;14708;50.872;5.306;2024-02-23T08:40:20;6.13;;;1.27;;
27187;SDS011;14708;50.872;5.306;2024-02-23T08:42:46;5.20;;;1.35;;
27187;SDS011;14708;50.872;5.306;2024-02-23T08:45:12;8.07;;;2.00;;
27187;SDS011;14708;50.872;5.306;2024-02-23T08:47:41;6.60;;;2.33;;
27187;SDS011;14708;50.872;5.306;2024-02-23T08:50:07;5.00;;;1.63;;
27187;SDS011;14708;50.872;5.306;2024-02-23T08:52:34;9.60;;;1.65;;
27187;SDS011;14708;50.872;5.306;2024-02-23T08:54:59;8.23;;;1.80;;
27187;SDS011;14708;50.872;5.306;2024-02-23T08:57:25;7.78;;;1.60;;
27187;SDS011;14708;50.872;5.306;2024-02-23T08:59:52;6.57;;;1.60;;
27187;SDS011;14708;50.872;5.306;2024-02-23T09:02:18;8.68;;;1.67;;
27187;SDS011;14708;50.872;5.306;2024-02-23T09:04:44;3.65;;;1.35;;
27187;SDS011;14708;50.872;5.306;2024-02-23T09:07:10;5.20;;;1.63;;
27187;SDS011;14708;50.872;5.306;2024-02-23T09:09:37;5.22;;;1.08;;
27187;SDS011;14708;50.872;5.306;2024-02-23T09:12:04;5.25;;;1.58;;
27187;SDS011;14708;50.872;5.306;2024-02-23T09:14:31;6.97;;;1.50;;
27187;SDS011;14708;50.872;5.306;2024-02-23T09:16:58;8.52;;;2.03;;
27187;SDS011;14708;50.872;5.306;2024-02-23T09:19:23;7.78;;;1.98;;
27187;SDS011;14708;50.872;5.306;2024-02-23T09:21:49;8.05;;;1.83;;
27187;SDS011;14708;50.872;5.306;2024-02-23T09:24:15;7.20;;;1.70;;
27187;SDS011;14708;50.872;5.306;2024-02-23T09:26:41;8.55;;;1.17;;
27187;SDS011;14708;50.872;5.306;2024-02-23T09:29:07;4.72;;;1.10;;
27187;SDS011;14708;50.872;5.306;2024-02-23T09:31:32;8.40;;;1.35;;
27187;SDS011;14708;50.872;5.306;2024-02-23T09:33:58;8.05;;;1.73;;
27187;SDS011;14708;50.872;5.306;2024-02-23T09:36:24;10.07;;;1.52;;
27187;SDS011;14708;50.872;5.306;2024-02-23T09:38:50;6.13;;;2.30;;
27187;SDS011;14708;50.872;5.306;2024-02-23T09:41:20;9.57;;;1.20;;
27187;SDS011;14708;50.872;5.306;2024-02-23T09:43:49;16.98;;;1.92;;
27187;SDS011;14708;50.872;5.306;2024-02-23T09:46:16;5.65;;;1.38;;
27187;SDS011;14708;50.872;5.306;2024-02-23T09:48:43;6.60;;;1.38;;
27187;SDS011;14708;50.872;5.306;2024-02-23T09:51:10;5.40;;;1.42;;
27187;SDS011;14708;50.872;5.306;2024-02-23T09:53:38;9.13;;;1.88;;
27187;SDS011;14708;50.872;5.306;2024-02-23T09:56:05;6.70;;;1.65;;
27187;SDS011;14708;50.872;5.306;2024-02-23T09:58:34;11.48;;;1.40;;
27187;SDS011;14708;50.872;5.306;2024-02-23T10:01:02;5.78;;;1.60;;
27187;SDS011;14708;50.872;5.306;2024-02-23T10:03:29;6.63;;;1.70;;
27187;SDS011;14708;50.872;5.306;2024-02-23T10:05:56;7.40;;;1.67;;
27187;SDS011;14708;50.872;5.306;2024-02-23T10:08:22;6.20;;;1.33;;
27187;SDS011;14708;50.872;5.306;2024-02-23T10:10:48;9.95;;;1.67;;
27187;SDS011;14708;50.872;5.306;2024-02-23T10:13:22;9.05;;;1.30;;
27187;SDS011;14708;50.872;5.306;2024-02-23T10:15:49;7.47;;;1.38;;
27187;SDS011;14708;50.872;5.306;2024-02-23T10:18:16;7.90;;;1.25;;
27187;SDS011;14708;50.872;5.306;2024-02-23T10:20:42;6.97;;;1.48;;
27187;SDS011;14708;50.872;5.306;2024-02-23T10:23:10;6.18;;;1.23;;
27187;SDS011;14708;50.872;5.306;2024-02-23T10:25:36;4.25;;;1.52;;
27187;SDS011;14708;50.872;5.306;2024-02-23T10:28:02;8.30;;;1.65;;
27187;SDS011;14708;50.872;5.306;2024-02-23T10:30:31;10.70;;;1.58;;
27187;SDS011;14708;50.872;5.306;2024-02-23T10:32:58;3.58;;;1.17;;
27187;SDS011;14708;50.872;5.306;2024-02-23T10:35:24;5.47;;;1.77;;
27187;SDS011;14708;50.872;5.306;2024-02-23T10:37:51;4.90;;;1.25;;
27187;SDS011;14708;50.872;5.306;2024-02-23T10:40:19;6.25;;;1.30;;
27187;SDS011;14708;50.872;5.306;2024-02-23T10:42:48;6.28;;;1.38;;
27187;SDS011;14708;50.872;5.306;2024-02-23T10:45:20;2.88;;;1.02;;
27187;SDS011;14708;50.872;5.306;2024-02-23T10:47:53;8.98;;;1.40;;
27187;SDS011;14708;50.872;5.306;2024-02-23T10:50:20;7.60;;;1.20;;
27187;SDS011;14708;50.872;5.306;2024-02-23T10:52:48;5.55;;;1.35;;
27187;SDS011;14708;50.872;5.306;2024-02-23T10:55:15;5.15;;;1.13;;
27187;SDS011;14708;50.872;5.306;2024-02-23T10:57:43;4.53;;;0.98;;
27187;SDS011;14708;50.872;5.306;2024-02-23T11:00:09;6.38;;;1.33;;
27187;SDS011;14708;50.872;5.306;2024-02-23T11:02:36;1.42;;;0.77;;
27187;SDS011;14708;50.872;5.306;2024-02-23T11:05:06;1.00;;;0.63;;
27187;SDS011;14708;50.872;5.306;2024-02-23T11:07:37;4.70;;;0.90;;
27187;SDS011;14708;50.872;5.306;2024-02-23T11:10:05;3.92;;;1.42;;
27187;SDS011;14708;50.872;5.306;2024-02-23T11:12:31;2.70;;;0.82;;
27187;SDS011;14708;50.872;5.306;2024-02-23T11:14:59;3.08;;;0.70;;
27187;SDS011;14708;50.872;5.306;2024-02-23T11:17:31;4.75;;;1.55;;
27187;SDS011;14708;50.872;5.306;2024-02-23T11:19:58;3.72;;;0.93;;
27187;SDS011;14708;50.872;5.306;2024-02-23T11:22:32;4.82;;;1.00;;
27187;SDS011;14708;50.872;5.306;2024-02-23T11:25:08;2.15;;;0.90;;
27187;SDS011;14708;50.872;5.306;2024-02-23T11:27:37;3.75;;;0.90;;
27187;SDS011;14708;50.872;5.306;2024-02-23T11:30:05;2.70;;;1.00;;
27187;SDS011;14708;50.872;5.306;2024-02-23T11:35:10;2.97;;;1.13;;
27187;SDS011;14708;50.872;5.306;2024-02-23T11:40:29;4.28;;;1.83;;
27187;SDS011;14708;50.872;5.306;2024-02-23T11:42:56;5.65;;;1.88;;
27187;SDS011;14708;50.872;5.306;2024-02-23T11:45:23;2.90;;;1.00;;
27187;SDS011;14708;50.872;5.306;2024-02-23T11:47:50;5.47;;;1.08;;
27187;SDS011;14708;50.872;5.306;2024-02-23T11:50:15;7.65;;;1.67;;
27187;SDS011;14708;50.872;5.306;2024-02-23T11:52:44;7.65;;;1.58;;
27187;SDS011;14708;50.872;5.306;2024-02-23T11:55:12;4.28;;;0.95;;
27187;SDS011;14708;50.872;5.306;2024-02-23T11:57:44;2.67;;;1.08;;
27187;SDS011;14708;50.872;5.306;2024-02-23T12:00:10;8.05;;;1.60;;
27187;SDS011;14708;50.872;5.306;2024-02-23T12:02:37;4.28;;;1.55;;
27187;SDS011;14708;50.872;5.306;2024-02-23T12:05:03;4.53;;;0.82;;
27187;SDS011;14708;50.872;5.306;2024-02-23T12:07:30;6.20;;;1.23;;
27187;SDS011;14708;50.872;5.306;2024-02-23T12:09:58;8.38;;;1.77;;
27187;SDS011;14708;50.872;5.306;2024-02-23T12:12:25;5.13;;;1.67;;
27187;SDS011;14708;50.872;5.306;2024-02-23T12:14:51;4.63;;;1.38;;
27187;SDS011;14708;50.872;5.306;2024-02-23T12:17:18;5.82;;;0.73;;
27187;SDS011;14708;50.872;5.306;2024-02-23T12:19:44;4.57;;;1.05;;
27187;SDS011;14708;50.872;5.306;2024-02-23T12:22:10;3.60;;;1.13;;
27187;SDS011;14708;50.872;5.306;2024-02-23T12:27:02;3.63;;;1.02;;
27187;SDS011;14708;50.872;5.306;2024-02-23T12:29:30;3.38;;;1.05;;
27187;SDS011;14708;50.872;5.306;2024-02-23T12:32:05;4.10;;;1.02;;
27187;SDS011;14708;50.872;5.306;2024-02-23T12:34:31;4.45;;;1.23;;
27187;SDS011;14708;50.872;5.306;2024-02-23T12:36:57;4.82;;;1.13;;
27187;SDS011;14708;50.872;5.306;2024-02-23T12:39:23;3.92;;;0.88;;
27187;SDS011;14708;50.872;5.306;2024-02-23T12:41:48;22.58;;;1.67;;
27187;SDS011;14708;50.872;5.306;2024-02-23T12:44:15;10.48;;;1.17;;
27187;SDS011;14708;50.872;5.306;2024-02-23T12:46:41;5.68;;;1.90;;
27187;SDS011;14708;50.872;5.306;2024-02-23T12:49:07;3.17;;;1.08;;
27187;SDS011;14708;50.872;5.306;2024-02-23T12:51:33;4.53;;;1.73;;
27187;SDS011;14708;50.872;5.306;2024-02-23T12:53:59;9.73;;;1.40;;
27187;SDS011;14708;50.872;5.306;2024-02-23T12:56:25;6.95;;;1.48;;
27187;SDS011;14708;50.872;5.306;2024-02-23T12:58:51;12.15;;;1.10;;
27187;SDS011;14708;50.872;5.306;2024-02-23T13:01:19;5.90;;;1.58;;
27187;SDS011;14708;50.872;5.306;2024-02-23T13:03:45;2.28;;;1.30;;
27187;SDS011;14708;50.872;5.306;2024-02-23T13:06:10;4.32;;;1.10;;
27187;SDS011;14708;50.872;5.306;2024-02-23T13:08:38;3.92;;;1.40;;
27187;SDS011;14708;50.872;5.306;2024-02-23T13:11:05;4.30;;;1.08;;
27187;SDS011;14708;50.872;5.306;2024-02-23T13:13:31;5.78;;;1.35;;
27187;SDS011;14708;50.872;5.306;2024-02-23T13:15:58;2.80;;;1.23;;
27187;SDS011;14708;50.872;5.306;2024-02-23T13:18:23;5.35;;;1.00;;
27187;SDS011;14708;50.872;5.306;2024-02-23T13:20:49;3.42;;;1.10;;
27187;SDS011;14708;50.872;5.306;2024-02-23T13:23:15;1.98;;;0.70;;
27187;SDS011;14708;50.872;5.306;2024-02-23T13:25:41;3.40;;;1.05;;
27187;SDS011;14708;50.872;5.306;2024-02-23T13:28:08;6.15;;;1.48;;
27187;SDS011;14708;50.872;5.306;2024-02-23T13:30:35;3.22;;;1.10;;
27187;SDS011;14708;50.872;5.306;2024-02-23T13:33:02;1.95;;;0.70;;
27187;SDS011;14708;50.872;5.306;2024-02-23T13:35:29;3.08;;;0.70;;
27187;SDS011;14708;50.872;5.306;2024-02-23T13:37:55;3.65;;;1.02;;
27187;SDS011;14708;50.872;5.306;2024-02-23T13:40:22;4.63;;;0.80;;
27187;SDS011;14708;50.872;5.306;2024-02-23T13:42:49;4.70;;;1.63;;
27187;SDS011;14708;50.872;5.306;2024-02-23T13:45:15;4.30;;;1.02;;
27187;SDS011;14708;50.872;5.306;2024-02-23T13:47:42;4.13;;;1.08;;
27187;SDS011;14708;50.872;5.306;2024-02-23T13:50:09;6.47;;;1.33;;
27187;SDS011;14708;50.872;5.306;2024-02-23T13:52:35;2.80;;;1.30;;
27187;SDS011;14708;50.872;5.306;2024-02-23T13:55:02;7.05;;;1.08;;
27187;SDS011;14708;50.872;5.306;2024-02-23T13:57:27;2.50;;;0.90;;
27187;SDS011;14708;50.872;5.306;2024-02-23T13:59:53;4.30;;;1.00;;
27187;SDS011;14708;50.872;5.306;2024-02-23T14:02:28;2.72;;;0.90;;
27187;SDS011;14708;50.872;5.306;2024-02-23T14:04:55;15.20;;;1.85;;
27187;SDS011;14708;50.872;5.306;2024-02-23T14:07:26;4.55;;;1.25;;
27187;SDS011;14708;50.872;5.306;2024-02-23T14:09:53;6.18;;;0.98;;
27187;SDS011;14708;50.872;5.306;2024-02-23T14:12:18;9.20;;;1.00;;
27187;SDS011;14708;50.872;5.306;2024-02-23T14:14:44;4.95;;;1.25;;
27187;SDS011;14708;50.872;5.306;2024-02-23T14:17:10;3.33;;;1.00;;
27187;SDS011;14708;50.872;5.306;2024-02-23T14:19:38;12.20;;;2.20;;
27187;SDS011;14708;50.872;5.306;2024-02-23T14:22:04;3.00;;;1.00;;
27187;SDS011;14708;50.872;5.306;2024-02-23T14:24:30;4.35;;;1.17;;
27187;SDS011;14708;50.872;5.306;2024-02-23T14:26:55;3.35;;;0.80;;
27187;SDS011;14708;50.872;5.306;2024-02-23T14:29:22;4.30;;;0.68;;
27187;SDS011;14708;50.872;5.306;2024-02-23T14:31:48;3.05;;;0.93;;
27187;SDS011;14708;50.872;5.306;2024-02-23T14:34:14;1.65;;;0.60;;
27187;SDS011;14708;50.872;5.306;2024-02-23T14:36:41;2.72;;;1.30;;
27187;SDS011;14708;50.872;5.306;2024-02-23T14:39:09;2.45;;;1.27;;
27187;SDS011;14708;50.872;5.306;2024-02-23T14:41:37;4.07;;;0.90;;
27187;SDS011;14708;50.872;5.306;2024-02-23T14:44:04;2.67;;;0.90;;
27187;SDS011;14708;50.872;5.306;2024-02-23T14:46:31;4.18;;;0.88;;
27187;SDS011;14708;50.872;5.306;2024-02-23T14:48:57;5.53;;;1.48;;
27187;SDS011;14708;50.872;5.306;2024-02-23T14:51:22;4.40;;;0.85;;
27187;SDS011;14708;50.872;5.306;2024-02-23T14:56:17;2.63;;;0.75;;
27187;SDS011;14708;50.872;5.306;2024-02-23T14:58:43;3.78;;;1.08;;